sensor_id;sensor_type;location;lat;lon;timestamp;P1;durP1;ratioP1;P2;durP2;ratioP2
38715;SDS011;24833;49.324;8.694;2023-08-24T00:02:01;3.60;;;2.17;;
38715;SDS011;24833;49.324;8.694;2023-08-24T00:04:28;7.53;;;2.40;;
38715;SDS011;24833;49.324;8.694;2023-08-24T00:06:55;6.70;;;1.83;;
38715;SDS011;24833;49.324;8.694;2023-08-24T00:09:22;3.10;;;1.88;;
38715;SDS011;24833;49.324;8.694;2023-08-24T00:11:49;2.83;;;2.08;;
38715;SDS011;24833;49.324;8.694;2023-08-24T00:14:16;3.33;;;1.90;;
38715;SDS011;24833;49.324;8.694;2023-08-24T00:16:43;4.63;;;2.30;;
38715;SDS011;24833;49.324;8.694;2023-08-24T00:19:10;3.97;;;2.33;;
38715;SDS011;24833;49.324;8.694;2023-08-24T00:21:37;3.03;;;1.80;;
38715;SDS011;24833;49.324;8.694;2023-08-24T00:24:05;2.53;;;2.00;;
38715;SDS011;24833;49.324;8.694;2023-08-24T00:26:32;2.53;;;1.65;;
38715;SDS011;24833;49.324;8.694;2023-08-24T00:28:59;3.45;;;1.92;;
38715;SDS011;24833;49.324;8.694;2023-08-24T00:31:26;6.78;;;2.22;;
38715;SDS011;24833;49.324;8.694;2023-08-24T00:33:58;4.13;;;2.50;;
38715;SDS011;24833;49.324;8.694;2023-08-24T00:36:25;5.20;;;2.50;;
38715;SDS011;24833;49.324;8.694;2023-08-24T00:38:53;2.35;;;2.08;;
38715;SDS011;24833;49.324;8.694;2023-08-24T00:41:20;5.40;;;2.47;;
38715;SDS011;24833;49.324;8.694;2023-08-24T00:43:48;4.03;;;2.10;;
38715;SDS011;24833;49.324;8.694;2023-08-24T00:46:16;4.30;;;2.35;;
38715;SDS011;24833;49.324;8.694;2023-08-24T00:48:46;8.60;;;2.47;;
38715;SDS011;24833;49.324;8.694;2023-08-24T00:51:13;2.72;;;1.90;;
38715;SDS011;24833;49.324;8.694;2023-08-24T00:53:40;4.78;;;2.20;;
38715;SDS011;24833;49.324;8.694;2023-08-24T00:56:08;2.65;;;1.90;;
38715;SDS011;24833;49.324;8.694;2023-08-24T00:58:35;2.30;;;1.85;;
38715;SDS011;24833;49.324;8.694;2023-08-24T01:01:04;2.30;;;1.88;;
38715;SDS011;24833;49.324;8.694;2023-08-24T01:03:32;4.15;;;1.80;;
38715;SDS011;24833;49.324;8.694;2023-08-24T01:05:59;2.67;;;1.83;;
38715;SDS011;24833;49.324;8.694;2023-08-24T01:08:27;2.83;;;2.30;;
38715;SDS011;24833;49.324;8.694;2023-08-24T01:14:23;2.20;;;2.00;;
38715;SDS011;24833;49.324;8.694;2023-08-24T01:16:42;2.42;;;1.83;;
38715;SDS011;24833;49.324;8.694;2023-08-24T01:19:58;5.35;;;2.58;;
38715;SDS011;24833;49.324;8.694;2023-08-24T01:24:58;2.92;;;2.00;;
38715;SDS011;24833;49.324;8.694;2023-08-24T01:27:42;3.55;;;1.85;;
38715;SDS011;24833;49.324;8.694;2023-08-24T01:30:11;6.00;;;2.17;;
38715;SDS011;24833;49.324;8.694;2023-08-24T01:32:38;4.53;;;1.70;;
38715;SDS011;24833;49.324;8.694;2023-08-24T01:35:06;4.20;;;2.00;;
38715;SDS011;24833;49.324;8.694;2023-08-24T01:37:36;3.10;;;1.83;;
38715;SDS011;24833;49.324;8.694;2023-08-24T01:40:05;2.47;;;1.70;;
38715;SDS011;24833;49.324;8.694;2023-08-24T01:42:43;3.03;;;2.20;;
38715;SDS011;24833;49.324;8.694;2023-08-24T01:45:24;3.50;;;1.75;;
38715;SDS011;24833;49.324;8.694;2023-08-24T01:47:56;5.13;;;1.92;;
38715;SDS011;24833;49.324;8.694;2023-08-24T01:50:25;5.43;;;2.00;;
38715;SDS011;24833;49.324;8.694;2023-08-24T01:52:52;2.67;;;2.03;;
38715;SDS011;24833;49.324;8.694;2023-08-24T01:55:20;5.10;;;2.22;;
38715;SDS011;24833;49.324;8.694;2023-08-24T01:57:48;4.88;;;2.05;;
38715;SDS011;24833;49.324;8.694;2023-08-24T02:00:16;4.38;;;2.65;;
38715;SDS011;24833;49.324;8.694;2023-08-24T02:02:45;4.88;;;1.90;;
38715;SDS011;24833;49.324;8.694;2023-08-24T02:05:13;3.13;;;1.90;;
38715;SDS011;24833;49.324;8.694;2023-08-24T02:07:41;2.92;;;1.88;;
38715;SDS011;24833;49.324;8.694;2023-08-24T02:10:08;3.05;;;1.90;;
38715;SDS011;24833;49.324;8.694;2023-08-24T02:12:35;3.30;;;1.77;;
38715;SDS011;24833;49.324;8.694;2023-08-24T02:15:03;2.70;;;1.90;;
38715;SDS011;24833;49.324;8.694;2023-08-24T02:17:31;2.85;;;1.90;;
38715;SDS011;24833;49.324;8.694;2023-08-24T02:19:58;1.90;;;1.67;;
38715;SDS011;24833;49.324;8.694;2023-08-24T02:22:25;2.63;;;1.70;;
38715;SDS011;24833;49.324;8.694;2023-08-24T02:24:52;2.83;;;1.58;;
38715;SDS011;24833;49.324;8.694;2023-08-24T02:27:19;1.92;;;1.50;;
38715;SDS011;24833;49.324;8.694;2023-08-24T02:29:46;1.80;;;1.70;;
38715;SDS011;24833;49.324;8.694;2023-08-24T02:32:15;3.95;;;1.52;;
38715;SDS011;24833;49.324;8.694;2023-08-24T02:34:42;2.33;;;1.70;;
38715;SDS011;24833;49.324;8.694;2023-08-24T02:37:09;1.55;;;1.40;;
38715;SDS011;24833;49.324;8.694;2023-08-24T02:39:36;3.13;;;1.95;;
38715;SDS011;24833;49.324;8.694;2023-08-24T02:42:03;2.22;;;1.52;;
38715;SDS011;24833;49.324;8.694;2023-08-24T02:44:30;5.38;;;1.60;;
38715;SDS011;24833;49.324;8.694;2023-08-24T02:46:57;4.20;;;1.60;;
38715;SDS011;24833;49.324;8.694;2023-08-24T02:49:24;2.55;;;1.75;;
38715;SDS011;24833;49.324;8.694;2023-08-24T02:51:51;1.70;;;1.48;;
38715;SDS011;24833;49.324;8.694;2023-08-24T02:54:18;3.05;;;1.85;;
38715;SDS011;24833;49.324;8.694;2023-08-24T02:56:48;1.53;;;1.43;;
38715;SDS011;24833;49.324;8.694;2023-08-24T02:59:15;2.88;;;1.85;;
38715;SDS011;24833;49.324;8.694;2023-08-24T03:01:42;2.53;;;1.80;;
38715;SDS011;24833;49.324;8.694;2023-08-24T03:04:09;3.00;;;1.75;;
38715;SDS011;24833;49.324;8.694;2023-08-24T03:06:36;2.60;;;1.75;;
38715;SDS011;24833;49.324;8.694;2023-08-24T03:09:03;3.65;;;1.90;;
38715;SDS011;24833;49.324;8.694;2023-08-24T03:11:31;4.22;;;2.00;;
38715;SDS011;24833;49.324;8.694;2023-08-24T03:13:58;3.60;;;1.77;;
38715;SDS011;24833;49.324;8.694;2023-08-24T03:16:25;2.25;;;1.77;;
38715;SDS011;24833;49.324;8.694;2023-08-24T03:18:53;2.35;;;1.40;;
38715;SDS011;24833;49.324;8.694;2023-08-24T03:21:20;1.73;;;1.55;;
38715;SDS011;24833;49.324;8.694;2023-08-24T03:23:47;3.63;;;1.58;;
38715;SDS011;24833;49.324;8.694;2023-08-24T03:26:14;4.22;;;1.90;;
38715;SDS011;24833;49.324;8.694;2023-08-24T03:28:43;1.83;;;1.50;;
38715;SDS011;24833;49.324;8.694;2023-08-24T03:31:10;2.42;;;1.63;;
38715;SDS011;24833;49.324;8.694;2023-08-24T03:33:37;1.80;;;1.45;;
38715;SDS011;24833;49.324;8.694;2023-08-24T03:36:04;5.05;;;1.60;;
38715;SDS011;24833;49.324;8.694;2023-08-24T03:38:31;3.13;;;1.80;;
38715;SDS011;24833;49.324;8.694;2023-08-24T03:41:02;1.80;;;1.50;;
38715;SDS011;24833;49.324;8.694;2023-08-24T03:43:33;2.50;;;1.48;;
38715;SDS011;24833;49.324;8.694;2023-08-24T03:46:01;3.00;;;1.90;;
38715;SDS011;24833;49.324;8.694;2023-08-24T03:48:31;2.10;;;1.48;;
38715;SDS011;24833;49.324;8.694;2023-08-24T03:50:59;1.80;;;1.30;;
38715;SDS011;24833;49.324;8.694;2023-08-24T03:53:26;2.08;;;1.55;;
38715;SDS011;24833;49.324;8.694;2023-08-24T03:55:53;1.58;;;1.48;;
38715;SDS011;24833;49.324;8.694;2023-08-24T03:58:20;2.53;;;1.67;;
38715;SDS011;24833;49.324;8.694;2023-08-24T04:00:47;2.40;;;1.55;;
38715;SDS011;24833;49.324;8.694;2023-08-24T04:03:14;2.33;;;1.63;;
38715;SDS011;24833;49.324;8.694;2023-08-24T04:05:42;2.25;;;1.70;;
38715;SDS011;24833;49.324;8.694;2023-08-24T04:08:09;4.90;;;1.60;;
38715;SDS011;24833;49.324;8.694;2023-08-24T04:10:37;2.97;;;1.60;;
38715;SDS011;24833;49.324;8.694;2023-08-24T04:13:04;1.65;;;1.45;;
38715;SDS011;24833;49.324;8.694;2023-08-24T04:15:31;2.17;;;1.70;;
38715;SDS011;24833;49.324;8.694;2023-08-24T04:17:58;3.55;;;1.55;;
38715;SDS011;24833;49.324;8.694;2023-08-24T04:20:26;3.47;;;1.80;;
38715;SDS011;24833;49.324;8.694;2023-08-24T04:22:54;2.63;;;1.80;;
38715;SDS011;24833;49.324;8.694;2023-08-24T04:25:22;2.90;;;1.85;;
38715;SDS011;24833;49.324;8.694;2023-08-24T04:27:49;3.13;;;1.98;;
38715;SDS011;24833;49.324;8.694;2023-08-24T04:30:16;2.85;;;1.90;;
38715;SDS011;24833;49.324;8.694;2023-08-24T04:32:43;3.00;;;1.90;;
38715;SDS011;24833;49.324;8.694;2023-08-24T04:35:10;2.38;;;1.90;;
38715;SDS011;24833;49.324;8.694;2023-08-24T04:37:37;3.08;;;1.60;;
38715;SDS011;24833;49.324;8.694;2023-08-24T04:40:05;2.55;;;1.85;;
38715;SDS011;24833;49.324;8.694;2023-08-24T04:42:33;6.28;;;2.03;;
38715;SDS011;24833;49.324;8.694;2023-08-24T04:45:00;1.98;;;1.77;;
38715;SDS011;24833;49.324;8.694;2023-08-24T04:47:28;1.92;;;1.70;;
38715;SDS011;24833;49.324;8.694;2023-08-24T04:49:55;3.33;;;1.80;;
38715;SDS011;24833;49.324;8.694;2023-08-24T04:52:22;3.85;;;1.75;;
38715;SDS011;24833;49.324;8.694;2023-08-24T04:54:49;2.78;;;1.70;;
38715;SDS011;24833;49.324;8.694;2023-08-24T04:57:16;1.50;;;1.40;;
38715;SDS011;24833;49.324;8.694;2023-08-24T04:59:44;1.88;;;1.40;;
38715;SDS011;24833;49.324;8.694;2023-08-24T05:02:11;2.67;;;1.48;;
38715;SDS011;24833;49.324;8.694;2023-08-24T05:04:38;2.25;;;1.50;;
38715;SDS011;24833;49.324;8.694;2023-08-24T05:07:05;1.63;;;1.42;;
38715;SDS011;24833;49.324;8.694;2023-08-24T05:09:32;4.85;;;1.73;;
38715;SDS011;24833;49.324;8.694;2023-08-24T05:11:59;2.92;;;1.85;;
38715;SDS011;24833;49.324;8.694;2023-08-24T05:14:26;1.60;;;1.50;;
38715;SDS011;24833;49.324;8.694;2023-08-24T05:16:53;1.98;;;1.77;;
38715;SDS011;24833;49.324;8.694;2023-08-24T05:19:20;1.65;;;1.50;;
38715;SDS011;24833;49.324;8.694;2023-08-24T05:21:47;1.60;;;1.48;;
38715;SDS011;24833;49.324;8.694;2023-08-24T05:24:14;2.08;;;1.60;;
38715;SDS011;24833;49.324;8.694;2023-08-24T05:26:41;1.73;;;1.42;;
38715;SDS011;24833;49.324;8.694;2023-08-24T05:29:08;3.40;;;1.88;;
38715;SDS011;24833;49.324;8.694;2023-08-24T05:31:35;1.55;;;1.45;;
38715;SDS011;24833;49.324;8.694;2023-08-24T05:34:02;8.38;;;2.20;;
38715;SDS011;24833;49.324;8.694;2023-08-24T05:36:29;1.92;;;1.30;;
38715;SDS011;24833;49.324;8.694;2023-08-24T05:38:56;2.38;;;1.50;;
38715;SDS011;24833;49.324;8.694;2023-08-24T05:41:32;2.03;;;1.58;;
38715;SDS011;24833;49.324;8.694;2023-08-24T05:44:00;5.53;;;1.40;;
38715;SDS011;24833;49.324;8.694;2023-08-24T05:46:27;2.15;;;1.20;;
38715;SDS011;24833;49.324;8.694;2023-08-24T05:48:55;2.20;;;1.48;;
38715;SDS011;24833;49.324;8.694;2023-08-24T05:51:24;1.87;;;1.37;;
38715;SDS011;24833;49.324;8.694;2023-08-24T05:53:51;1.38;;;1.20;;
38715;SDS011;24833;49.324;8.694;2023-08-24T05:56:21;2.17;;;1.40;;
38715;SDS011;24833;49.324;8.694;2023-08-24T05:58:49;3.55;;;2.00;;
38715;SDS011;24833;49.324;8.694;2023-08-24T06:01:16;2.42;;;1.92;;
38715;SDS011;24833;49.324;8.694;2023-08-24T06:03:43;4.22;;;2.65;;
38715;SDS011;24833;49.324;8.694;2023-08-24T06:06:11;4.95;;;2.85;;
38715;SDS011;24833;49.324;8.694;2023-08-24T06:08:38;4.40;;;3.13;;
38715;SDS011;24833;49.324;8.694;2023-08-24T06:11:05;3.50;;;2.88;;
38715;SDS011;24833;49.324;8.694;2023-08-24T06:13:33;3.50;;;2.40;;
38715;SDS011;24833;49.324;8.694;2023-08-24T06:16:00;6.80;;;3.05;;
38715;SDS011;24833;49.324;8.694;2023-08-24T06:18:28;3.80;;;2.67;;
38715;SDS011;24833;49.324;8.694;2023-08-24T06:20:55;5.03;;;2.55;;
38715;SDS011;24833;49.324;8.694;2023-08-24T06:23:22;2.67;;;2.17;;
38715;SDS011;24833;49.324;8.694;2023-08-24T06:25:49;3.45;;;2.40;;
38715;SDS011;24833;49.324;8.694;2023-08-24T06:28:16;5.93;;;2.78;;
38715;SDS011;24833;49.324;8.694;2023-08-24T06:30:43;4.20;;;2.58;;
38715;SDS011;24833;49.324;8.694;2023-08-24T06:33:12;3.45;;;2.53;;
38715;SDS011;24833;49.324;8.694;2023-08-24T06:35:40;4.28;;;2.15;;
38715;SDS011;24833;49.324;8.694;2023-08-24T06:38:07;5.00;;;2.33;;
38715;SDS011;24833;49.324;8.694;2023-08-24T06:40:34;2.70;;;1.90;;
38715;SDS011;24833;49.324;8.694;2023-08-24T06:43:01;2.70;;;2.10;;
38715;SDS011;24833;49.324;8.694;2023-08-24T06:45:28;3.25;;;2.03;;
38715;SDS011;24833;49.324;8.694;2023-08-24T06:47:55;2.60;;;2.38;;
38715;SDS011;24833;49.324;8.694;2023-08-24T06:50:22;3.05;;;1.83;;
38715;SDS011;24833;49.324;8.694;2023-08-24T06:52:49;2.75;;;2.55;;
38715;SDS011;24833;49.324;8.694;2023-08-24T06:55:16;3.92;;;2.80;;
38715;SDS011;24833;49.324;8.694;2023-08-24T06:57:47;7.68;;;2.53;;
38715;SDS011;24833;49.324;8.694;2023-08-24T07:00:18;3.35;;;1.98;;
38715;SDS011;24833;49.324;8.694;2023-08-24T07:02:49;3.20;;;1.55;;
38715;SDS011;24833;49.324;8.694;2023-08-24T07:05:17;5.40;;;1.77;;
38715;SDS011;24833;49.324;8.694;2023-08-24T07:07:47;1.50;;;1.33;;
38715;SDS011;24833;49.324;8.694;2023-08-24T07:10:17;2.50;;;1.55;;
38715;SDS011;24833;49.324;8.694;2023-08-24T07:12:45;3.55;;;1.55;;
38715;SDS011;24833;49.324;8.694;2023-08-24T07:15:12;2.72;;;1.58;;
38715;SDS011;24833;49.324;8.694;2023-08-24T07:17:40;2.28;;;2.08;;
38715;SDS011;24833;49.324;8.694;2023-08-24T07:20:07;3.03;;;2.20;;
38715;SDS011;24833;49.324;8.694;2023-08-24T07:22:35;6.70;;;2.40;;
38715;SDS011;24833;49.324;8.694;2023-08-24T07:25:03;3.13;;;2.33;;
38715;SDS011;24833;49.324;8.694;2023-08-24T07:27:32;6.03;;;3.23;;
38715;SDS011;24833;49.324;8.694;2023-08-24T07:30:00;4.60;;;2.30;;
38715;SDS011;24833;49.324;8.694;2023-08-24T07:32:47;5.70;;;2.65;;
38715;SDS011;24833;49.324;8.694;2023-08-24T07:35:15;7.00;;;2.83;;
38715;SDS011;24833;49.324;8.694;2023-08-24T07:37:42;5.22;;;2.60;;
38715;SDS011;24833;49.324;8.694;2023-08-24T07:40:09;3.90;;;2.75;;
38715;SDS011;24833;49.324;8.694;2023-08-24T07:42:48;4.35;;;2.55;;
38715;SDS011;24833;49.324;8.694;2023-08-24T07:45:17;5.82;;;2.58;;
38715;SDS011;24833;49.324;8.694;2023-08-24T07:47:44;3.13;;;2.22;;
38715;SDS011;24833;49.324;8.694;2023-08-24T07:50:12;4.15;;;2.38;;
38715;SDS011;24833;49.324;8.694;2023-08-24T07:52:39;2.70;;;2.10;;
38715;SDS011;24833;49.324;8.694;2023-08-24T07:55:07;3.22;;;2.50;;
38715;SDS011;24833;49.324;8.694;2023-08-24T07:57:36;5.80;;;2.50;;
38715;SDS011;24833;49.324;8.694;2023-08-24T08:00:04;3.20;;;2.65;;
38715;SDS011;24833;49.324;8.694;2023-08-24T08:02:40;2.38;;;2.17;;
38715;SDS011;24833;49.324;8.694;2023-08-24T08:05:08;3.60;;;2.45;;
38715;SDS011;24833;49.324;8.694;2023-08-24T08:07:37;3.47;;;2.70;;
38715;SDS011;24833;49.324;8.694;2023-08-24T08:10:05;3.55;;;2.20;;
38715;SDS011;24833;49.324;8.694;2023-08-24T08:12:33;3.55;;;2.10;;
38715;SDS011;24833;49.324;8.694;2023-08-24T08:15:00;2.67;;;2.42;;
38715;SDS011;24833;49.324;8.694;2023-08-24T08:17:28;4.45;;;2.47;;
38715;SDS011;24833;49.324;8.694;2023-08-24T08:19:57;3.53;;;2.63;;
38715;SDS011;24833;49.324;8.694;2023-08-24T08:22:24;3.50;;;2.60;;
38715;SDS011;24833;49.324;8.694;2023-08-24T08:24:51;3.55;;;2.58;;
38715;SDS011;24833;49.324;8.694;2023-08-24T08:27:22;3.83;;;2.35;;
38715;SDS011;24833;49.324;8.694;2023-08-24T08:29:50;4.38;;;2.47;;
38715;SDS011;24833;49.324;8.694;2023-08-24T08:32:17;3.60;;;2.25;;
38715;SDS011;24833;49.324;8.694;2023-08-24T08:34:44;3.38;;;2.30;;
38715;SDS011;24833;49.324;8.694;2023-08-24T08:37:11;5.40;;;2.33;;
38715;SDS011;24833;49.324;8.694;2023-08-24T08:39:38;4.38;;;2.50;;
38715;SDS011;24833;49.324;8.694;2023-08-24T08:42:06;4.03;;;2.35;;
38715;SDS011;24833;49.324;8.694;2023-08-24T08:44:40;4.35;;;2.00;;
38715;SDS011;24833;49.324;8.694;2023-08-24T08:47:10;3.15;;;2.03;;
38715;SDS011;24833;49.324;8.694;2023-08-24T08:49:44;2.03;;;1.42;;
38715;SDS011;24833;49.324;8.694;2023-08-24T08:52:13;1.63;;;1.50;;
38715;SDS011;24833;49.324;8.694;2023-08-24T08:54:41;3.42;;;1.73;;
38715;SDS011;24833;49.324;8.694;2023-08-24T08:57:08;1.88;;;1.73;;
38715;SDS011;24833;49.324;8.694;2023-08-24T08:59:36;2.42;;;1.85;;
38715;SDS011;24833;49.324;8.694;2023-08-24T09:02:03;3.22;;;1.70;;
38715;SDS011;24833;49.324;8.694;2023-08-24T09:04:32;4.85;;;1.58;;
38715;SDS011;24833;49.324;8.694;2023-08-24T09:07:00;2.13;;;1.92;;
38715;SDS011;24833;49.324;8.694;2023-08-24T09:11:58;1.85;;;1.50;;
38715;SDS011;24833;49.324;8.694;2023-08-24T09:14:26;1.88;;;1.63;;
38715;SDS011;24833;49.324;8.694;2023-08-24T09:16:53;2.33;;;1.55;;
38715;SDS011;24833;49.324;8.694;2023-08-24T09:19:20;3.92;;;1.80;;
38715;SDS011;24833;49.324;8.694;2023-08-24T09:22:01;3.70;;;1.88;;
38715;SDS011;24833;49.324;8.694;2023-08-24T09:24:31;3.95;;;1.48;;
38715;SDS011;24833;49.324;8.694;2023-08-24T09:27:04;2.50;;;1.67;;
38715;SDS011;24833;49.324;8.694;2023-08-24T09:29:43;3.38;;;1.58;;
38715;SDS011;24833;49.324;8.694;2023-08-24T09:32:14;2.50;;;1.52;;
38715;SDS011;24833;49.324;8.694;2023-08-24T09:34:42;4.03;;;1.92;;
38715;SDS011;24833;49.324;8.694;2023-08-24T09:37:13;2.97;;;1.75;;
38715;SDS011;24833;49.324;8.694;2023-08-24T09:39:41;2.95;;;1.40;;
38715;SDS011;24833;49.324;8.694;2023-08-24T09:42:09;1.80;;;1.70;;
38715;SDS011;24833;49.324;8.694;2023-08-24T09:44:36;4.00;;;2.03;;
38715;SDS011;24833;49.324;8.694;2023-08-24T09:47:08;6.18;;;1.63;;
38715;SDS011;24833;49.324;8.694;2023-08-24T09:49:37;4.28;;;1.85;;
38715;SDS011;24833;49.324;8.694;2023-08-24T09:52:07;4.80;;;2.10;;
38715;SDS011;24833;49.324;8.694;2023-08-24T09:54:38;3.55;;;1.73;;
38715;SDS011;24833;49.324;8.694;2023-08-24T09:57:07;4.28;;;1.80;;
38715;SDS011;24833;49.324;8.694;2023-08-24T09:59:36;5.18;;;1.98;;
38715;SDS011;24833;49.324;8.694;2023-08-24T10:04:41;3.60;;;2.10;;
38715;SDS011;24833;49.324;8.694;2023-08-24T10:07:11;2.55;;;1.88;;
38715;SDS011;24833;49.324;8.694;2023-08-24T10:09:47;6.63;;;2.08;;
38715;SDS011;24833;49.324;8.694;2023-08-24T10:12:41;2.78;;;1.75;;
38715;SDS011;24833;49.324;8.694;2023-08-24T10:15:17;3.45;;;2.63;;
38715;SDS011;24833;49.324;8.694;2023-08-24T10:17:44;2.50;;;1.85;;
38715;SDS011;24833;49.324;8.694;2023-08-24T10:20:12;2.63;;;1.85;;
38715;SDS011;24833;49.324;8.694;2023-08-24T10:22:41;4.35;;;2.05;;
38715;SDS011;24833;49.324;8.694;2023-08-24T10:25:09;4.40;;;2.00;;
38715;SDS011;24833;49.324;8.694;2023-08-24T10:27:37;4.57;;;2.17;;
38715;SDS011;24833;49.324;8.694;2023-08-24T10:30:13;4.20;;;2.10;;
38715;SDS011;24833;49.324;8.694;2023-08-24T10:32:42;3.45;;;2.17;;
38715;SDS011;24833;49.324;8.694;2023-08-24T10:35:12;3.40;;;2.53;;
38715;SDS011;24833;49.324;8.694;2023-08-24T10:37:44;4.22;;;1.70;;
38715;SDS011;24833;49.324;8.694;2023-08-24T10:40:12;4.78;;;2.20;;
38715;SDS011;24833;49.324;8.694;2023-08-24T10:42:43;3.33;;;2.10;;
38715;SDS011;24833;49.324;8.694;2023-08-24T10:45:13;2.75;;;2.05;;
38715;SDS011;24833;49.324;8.694;2023-08-24T10:50:13;2.90;;;2.33;;
38715;SDS011;24833;49.324;8.694;2023-08-24T10:52:44;4.18;;;2.00;;
38715;SDS011;24833;49.324;8.694;2023-08-24T10:55:26;6.90;;;2.50;;
38715;SDS011;24833;49.324;8.694;2023-08-24T10:57:57;3.17;;;2.15;;
38715;SDS011;24833;49.324;8.694;2023-08-24T11:00:29;2.90;;;1.90;;
38715;SDS011;24833;49.324;8.694;2023-08-24T11:02:57;2.70;;;1.98;;
38715;SDS011;24833;49.324;8.694;2023-08-24T11:05:29;8.13;;;2.45;;
38715;SDS011;24833;49.324;8.694;2023-08-24T11:13:13;3.55;;;2.35;;
38715;SDS011;24833;49.324;8.694;2023-08-24T11:15:44;2.20;;;1.58;;
38715;SDS011;24833;49.324;8.694;2023-08-24T11:18:20;3.53;;;2.20;;
38715;SDS011;24833;49.324;8.694;2023-08-24T11:20:53;8.63;;;2.65;;
38715;SDS011;24833;49.324;8.694;2023-08-24T11:23:28;3.15;;;2.10;;
38715;SDS011;24833;49.324;8.694;2023-08-24T11:25:59;4.20;;;2.30;;
38715;SDS011;24833;49.324;8.694;2023-08-24T11:28:27;3.25;;;2.25;;
38715;SDS011;24833;49.324;8.694;2023-08-24T11:30:57;8.80;;;2.40;;
38715;SDS011;24833;49.324;8.694;2023-08-24T11:33:30;3.20;;;1.80;;
38715;SDS011;24833;49.324;8.694;2023-08-24T11:35:59;3.80;;;2.00;;
38715;SDS011;24833;49.324;8.694;2023-08-24T11:38:38;3.03;;;2.08;;
38715;SDS011;24833;49.324;8.694;2023-08-24T11:41:13;5.97;;;2.53;;
38715;SDS011;24833;49.324;8.694;2023-08-24T11:43:42;3.85;;;2.03;;
38715;SDS011;24833;49.324;8.694;2023-08-24T11:46:11;5.65;;;2.50;;
38715;SDS011;24833;49.324;8.694;2023-08-24T11:48:39;4.57;;;2.28;;
38715;SDS011;24833;49.324;8.694;2023-08-24T11:51:08;3.67;;;2.40;;
38715;SDS011;24833;49.324;8.694;2023-08-24T11:53:37;4.88;;;2.55;;
38715;SDS011;24833;49.324;8.694;2023-08-24T11:56:11;3.63;;;2.47;;
38715;SDS011;24833;49.324;8.694;2023-08-24T11:58:40;3.40;;;2.40;;
38715;SDS011;24833;49.324;8.694;2023-08-24T12:01:09;5.15;;;2.60;;
38715;SDS011;24833;49.324;8.694;2023-08-24T12:03:38;2.30;;;2.08;;
38715;SDS011;24833;49.324;8.694;2023-08-24T12:06:10;4.88;;;2.35;;
38715;SDS011;24833;49.324;8.694;2023-08-24T12:08:39;5.15;;;2.03;;
38715;SDS011;24833;49.324;8.694;2023-08-24T12:11:18;9.82;;;2.58;;
38715;SDS011;24833;49.324;8.694;2023-08-24T12:13:51;3.70;;;2.37;;
38715;SDS011;24833;49.324;8.694;2023-08-24T12:16:20;3.90;;;2.38;;
38715;SDS011;24833;49.324;8.694;2023-08-24T12:21:23;3.35;;;2.30;;
38715;SDS011;24833;49.324;8.694;2023-08-24T12:23:57;3.13;;;2.50;;
38715;SDS011;24833;49.324;8.694;2023-08-24T12:26:30;6.65;;;2.33;;
38715;SDS011;24833;49.324;8.694;2023-08-24T12:29:10;3.72;;;2.30;;
38715;SDS011;24833;49.324;8.694;2023-08-24T12:31:37;4.30;;;2.55;;
38715;SDS011;24833;49.324;8.694;2023-08-24T12:34:09;5.57;;;2.78;;
38715;SDS011;24833;49.324;8.694;2023-08-24T12:36:37;2.92;;;2.30;;
38715;SDS011;24833;49.324;8.694;2023-08-24T12:39:08;3.92;;;2.40;;
38715;SDS011;24833;49.324;8.694;2023-08-24T12:41:41;4.30;;;2.20;;
38715;SDS011;24833;49.324;8.694;2023-08-24T12:44:08;5.88;;;2.42;;
38715;SDS011;24833;49.324;8.694;2023-08-24T12:46:39;5.28;;;2.85;;
38715;SDS011;24833;49.324;8.694;2023-08-24T12:49:06;2.95;;;2.35;;
38715;SDS011;24833;49.324;8.694;2023-08-24T12:51:33;3.83;;;1.98;;
38715;SDS011;24833;49.324;8.694;2023-08-24T12:54:01;5.90;;;1.90;;
38715;SDS011;24833;49.324;8.694;2023-08-24T12:56:28;6.22;;;2.75;;
38715;SDS011;24833;49.324;8.694;2023-08-24T12:58:54;3.03;;;2.40;;
38715;SDS011;24833;49.324;8.694;2023-08-24T13:01:21;3.53;;;2.22;;
38715;SDS011;24833;49.324;8.694;2023-08-24T13:03:49;5.13;;;2.25;;
38715;SDS011;24833;49.324;8.694;2023-08-24T13:06:16;4.78;;;2.30;;
38715;SDS011;24833;49.324;8.694;2023-08-24T13:08:46;3.25;;;2.35;;
38715;SDS011;24833;49.324;8.694;2023-08-24T13:11:13;3.33;;;2.10;;
38715;SDS011;24833;49.324;8.694;2023-08-24T13:13:40;6.00;;;2.80;;
38715;SDS011;24833;49.324;8.694;2023-08-24T13:16:07;4.05;;;2.55;;
38715;SDS011;24833;49.324;8.694;2023-08-24T13:18:34;3.35;;;2.20;;
38715;SDS011;24833;49.324;8.694;2023-08-24T13:21:01;2.85;;;2.05;;
38715;SDS011;24833;49.324;8.694;2023-08-24T13:23:29;2.15;;;1.98;;
38715;SDS011;24833;49.324;8.694;2023-08-24T13:25:59;3.55;;;2.30;;
38715;SDS011;24833;49.324;8.694;2023-08-24T13:28:26;2.25;;;2.00;;
38715;SDS011;24833;49.324;8.694;2023-08-24T13:30:55;3.67;;;2.00;;
38715;SDS011;24833;49.324;8.694;2023-08-24T13:33:22;5.97;;;2.40;;
38715;SDS011;24833;49.324;8.694;2023-08-24T13:35:49;5.65;;;2.40;;
38715;SDS011;24833;49.324;8.694;2023-08-24T13:38:16;5.18;;;2.30;;
38715;SDS011;24833;49.324;8.694;2023-08-24T13:40:43;3.17;;;1.92;;
38715;SDS011;24833;49.324;8.694;2023-08-24T13:43:15;2.75;;;2.08;;
38715;SDS011;24833;49.324;8.694;2023-08-24T13:45:42;3.92;;;2.15;;
38715;SDS011;24833;49.324;8.694;2023-08-24T13:48:09;4.30;;;2.17;;
38715;SDS011;24833;49.324;8.694;2023-08-24T13:50:37;4.07;;;2.00;;
38715;SDS011;24833;49.324;8.694;2023-08-24T13:53:04;3.08;;;1.88;;
38715;SDS011;24833;49.324;8.694;2023-08-24T13:55:32;2.35;;;2.15;;
38715;SDS011;24833;49.324;8.694;2023-08-24T13:57:59;5.28;;;1.90;;
38715;SDS011;24833;49.324;8.694;2023-08-24T14:00:26;2.17;;;1.98;;
38715;SDS011;24833;49.324;8.694;2023-08-24T14:02:53;6.10;;;2.10;;
38715;SDS011;24833;49.324;8.694;2023-08-24T14:05:21;4.82;;;1.95;;
38715;SDS011;24833;49.324;8.694;2023-08-24T14:07:48;2.58;;;1.83;;
38715;SDS011;24833;49.324;8.694;2023-08-24T14:10:15;4.03;;;1.90;;
38715;SDS011;24833;49.324;8.694;2023-08-24T14:12:42;3.35;;;2.08;;
38715;SDS011;24833;49.324;8.694;2023-08-24T14:15:09;2.03;;;1.67;;
38715;SDS011;24833;49.324;8.694;2023-08-24T14:17:37;2.30;;;1.75;;
38715;SDS011;24833;49.324;8.694;2023-08-24T14:20:05;2.28;;;1.88;;
38715;SDS011;24833;49.324;8.694;2023-08-24T14:22:32;3.20;;;2.17;;
38715;SDS011;24833;49.324;8.694;2023-08-24T14:24:59;4.10;;;1.98;;
38715;SDS011;24833;49.324;8.694;2023-08-24T14:27:27;2.45;;;2.10;;
38715;SDS011;24833;49.324;8.694;2023-08-24T14:29:54;2.25;;;1.92;;
38715;SDS011;24833;49.324;8.694;2023-08-24T14:32:21;3.28;;;2.30;;
38715;SDS011;24833;49.324;8.694;2023-08-24T14:34:49;4.63;;;2.33;;
38715;SDS011;24833;49.324;8.694;2023-08-24T14:37:16;2.08;;;1.88;;
38715;SDS011;24833;49.324;8.694;2023-08-24T14:39:43;3.65;;;2.30;;
38715;SDS011;24833;49.324;8.694;2023-08-24T14:42:10;4.85;;;2.47;;
38715;SDS011;24833;49.324;8.694;2023-08-24T14:44:37;2.95;;;2.20;;
38715;SDS011;24833;49.324;8.694;2023-08-24T14:47:05;4.72;;;2.55;;
38715;SDS011;24833;49.324;8.694;2023-08-24T14:49:32;13.20;;;5.35;;
38715;SDS011;24833;49.324;8.694;2023-08-24T14:52:00;6.70;;;3.38;;
38715;SDS011;24833;49.324;8.694;2023-08-24T14:54:27;6.50;;;2.92;;
38715;SDS011;24833;49.324;8.694;2023-08-24T14:56:54;6.55;;;3.42;;
38715;SDS011;24833;49.324;8.694;2023-08-24T14:59:21;6.05;;;2.95;;
38715;SDS011;24833;49.324;8.694;2023-08-24T15:01:49;3.45;;;2.83;;
38715;SDS011;24833;49.324;8.694;2023-08-24T15:04:16;6.70;;;3.10;;
38715;SDS011;24833;49.324;8.694;2023-08-24T15:06:43;6.88;;;3.40;;
38715;SDS011;24833;49.324;8.694;2023-08-24T15:09:10;4.80;;;3.67;;
38715;SDS011;24833;49.324;8.694;2023-08-24T15:11:37;4.53;;;3.25;;
38715;SDS011;24833;49.324;8.694;2023-08-24T15:14:04;5.10;;;3.05;;
38715;SDS011;24833;49.324;8.694;2023-08-24T15:16:31;3.45;;;3.08;;
38715;SDS011;24833;49.324;8.694;2023-08-24T15:18:58;4.22;;;3.42;;